createdAt,value
2023-05-24T00:02:26.866Z,17.67
2023-05-24T00:05:16.655Z,16.03
2023-05-24T00:08:04.980Z,19.10
2023-05-24T00:10:52.359Z,21.00
2023-05-24T00:13:39.763Z,23.00
2023-05-24T00:16:27.234Z,20.73
2023-05-24T00:19:18.477Z,18.30
2023-05-24T00:22:06.238Z,23.93
2023-05-24T00:24:53.642Z,20.23
2023-05-24T00:27:41.057Z,23.60
2023-05-24T00:30:28.447Z,22.70
2023-05-24T00:33:15.956Z,17.93
2023-05-24T00:36:03.389Z,22.13
2023-05-24T00:38:50.885Z,18.50
2023-05-24T00:41:38.276Z,16.33
2023-05-24T00:44:25.706Z,23.77
2023-05-24T00:47:13.158Z,21.17
2023-05-24T00:50:00.674Z,19.10
2023-05-24T00:52:48.541Z,22.57
2023-05-24T00:55:36.707Z,24.83
2023-05-24T00:58:27.133Z,23.97
2023-05-24T01:01:14.701Z,19.63
2023-05-24T01:04:02.312Z,17.90
2023-05-24T01:07:13.116Z,23.00
2023-05-24T01:10:05.161Z,22.20
2023-05-24T01:12:56.871Z,23.93
2023-05-24T01:16:03.680Z,24.00
2023-05-24T01:18:53.299Z,21.33
2023-05-24T01:22:02.359Z,22.87
2023-05-24T01:24:58.855Z,24.03
2023-05-24T01:27:47.169Z,22.37
2023-05-24T01:30:36.363Z,23.07
2023-05-24T01:33:23.823Z,22.60
2023-05-24T01:36:11.613Z,21.43
2023-05-24T01:38:59.142Z,23.40
2023-05-24T01:42:08.225Z,20.63
2023-05-24T01:44:58.365Z,18.00
2023-05-24T01:48:04.663Z,22.50
2023-05-24T01:50:53.966Z,23.70
2023-05-24T01:53:44.126Z,24.93
2023-05-24T01:56:32.136Z,18.30
2023-05-24T01:59:20.186Z,27.50
2023-05-24T02:02:07.644Z,17.73
2023-05-24T02:04:55.101Z,28.00
2023-05-24T02:07:42.545Z,23.97
2023-05-24T02:10:29.970Z,19.67
2023-05-24T02:13:18.178Z,34.50
2023-05-24T02:16:06.360Z,16.77
2023-05-24T02:18:53.946Z,23.23
2023-05-24T02:21:41.456Z,23.83
2023-05-24T02:24:29.081Z,25.97
2023-05-24T02:27:16.468Z,26.13
2023-05-24T02:30:03.965Z,28.00
2023-05-24T02:32:51.397Z,24.70
2023-05-24T02:35:41.298Z,22.43
2023-05-24T02:38:28.798Z,18.27
2023-05-24T02:41:18.144Z,19.23
2023-05-24T02:44:05.772Z,17.97
2023-05-24T02:46:53.201Z,18.07
2023-05-24T02:49:40.664Z,27.53
2023-05-24T02:52:28.112Z,20.20
2023-05-24T02:55:15.690Z,24.87
2023-05-24T02:58:03.069Z,18.67
2023-05-24T03:00:50.602Z,24.20
2023-05-24T03:03:38.113Z,27.13
2023-05-24T03:06:25.684Z,17.37
2023-05-24T03:09:13.368Z,21.93
2023-05-24T03:12:00.874Z,18.87
2023-05-24T03:14:48.274Z,24.83
2023-05-24T03:17:35.715Z,18.23
2023-05-24T03:20:24.585Z,25.33
2023-05-24T03:23:12.460Z,25.00
2023-05-24T03:25:59.842Z,21.20
2023-05-24T03:28:47.689Z,20.30
2023-05-24T03:31:35.135Z,22.10
2023-05-24T03:34:22.599Z,22.60
2023-05-24T03:37:10.316Z,22.07
2023-05-24T03:39:57.715Z,27.67
2023-05-24T03:42:45.101Z,21.50
2023-05-24T03:45:38.981Z,21.10
2023-05-24T03:48:27.338Z,19.97
2023-05-24T03:51:14.752Z,22.00
2023-05-24T03:54:02.170Z,24.77
2023-05-24T03:56:49.610Z,27.10
2023-05-24T03:59:38.761Z,19.27
2023-05-24T04:02:27.912Z,22.50
2023-05-24T04:05:15.468Z,23.60
2023-05-24T04:08:02.955Z,27.37
2023-05-24T04:10:50.381Z,19.10
2023-05-24T04:13:37.807Z,22.57
2023-05-24T04:16:26.239Z,24.53
2023-05-24T04:19:13.883Z,25.70
2023-05-24T04:22:01.329Z,31.90
2023-05-24T04:24:49.514Z,16.73
2023-05-24T04:27:37.259Z,26.73
2023-05-24T04:30:24.732Z,25.10
2023-05-24T04:33:12.567Z,23.37
2023-05-24T04:36:03.387Z,27.27
2023-05-24T04:38:53.589Z,19.93
2023-05-24T04:41:41.014Z,21.77
2023-05-24T04:44:28.404Z,21.83
2023-05-24T04:47:16.271Z,25.60
2023-05-24T04:50:03.718Z,24.27
2023-05-24T04:52:51.114Z,26.87
2023-05-24T04:55:38.508Z,22.53
2023-05-24T04:58:25.891Z,26.93
2023-05-24T05:01:13.284Z,21.37
2023-05-24T05:04:00.921Z,18.77
2023-05-24T05:06:48.679Z,27.17
2023-05-24T05:09:36.077Z,19.23
2023-05-24T05:12:23.491Z,28.00
2023-05-24T05:15:11.063Z,24.57
2023-05-24T05:17:58.522Z,24.67
2023-05-24T05:20:46.244Z,25.07
2023-05-24T05:23:33.946Z,29.07
2023-05-24T05:26:21.519Z,19.77
2023-05-24T05:29:08.890Z,26.90
2023-05-24T05:31:56.423Z,22.30
2023-05-24T05:34:43.863Z,20.90
2023-05-24T05:37:31.298Z,27.87
2023-05-24T05:40:18.812Z,27.67
2023-05-24T05:43:08.376Z,26.10
2023-05-24T05:45:56.525Z,24.70
2023-05-24T05:48:46.220Z,21.83
2023-05-24T05:51:33.931Z,25.73
2023-05-24T05:54:21.377Z,23.87
2023-05-24T05:57:11.292Z,25.63
2023-05-24T05:59:58.716Z,25.33
2023-05-24T06:02:46.205Z,22.33
2023-05-24T06:05:33.726Z,27.90
2023-05-24T06:08:21.173Z,20.60
2023-05-24T06:11:08.606Z,26.00
2023-05-24T06:13:55.976Z,17.23
2023-05-24T06:16:46.036Z,18.50
2023-05-24T06:19:33.645Z,19.20
2023-05-24T06:22:21.662Z,16.30
2023-05-24T06:25:09.285Z,16.63
2023-05-24T06:27:56.800Z,18.90
2023-05-24T06:30:44.485Z,22.83
2023-05-24T06:33:32.382Z,24.07
2023-05-24T06:36:19.985Z,21.33
2023-05-24T06:39:07.436Z,19.13
2023-05-24T06:41:55.029Z,24.17
2023-05-24T06:44:42.463Z,22.53
2023-05-24T06:47:30.100Z,26.67
2023-05-24T06:50:18.513Z,27.77
2023-05-24T06:53:06.674Z,25.97
2023-05-24T06:55:56.853Z,26.10
2023-05-24T06:58:44.963Z,24.90
2023-05-24T07:01:33.109Z,20.90
2023-05-24T07:04:20.538Z,26.50
2023-05-24T07:07:08.913Z,18.80
2023-05-24T07:09:56.444Z,17.73
2023-05-24T07:12:43.830Z,15.87
2023-05-24T07:15:31.268Z,16.03
2023-05-24T07:18:18.674Z,24.37
2023-05-24T07:21:06.162Z,18.30
2023-05-24T07:23:53.566Z,22.97
2023-05-24T07:26:41.020Z,18.07
2023-05-24T07:29:28.638Z,20.73
2023-05-24T07:32:16.536Z,19.97
2023-05-24T07:35:04.019Z,21.10
2023-05-24T07:37:51.518Z,23.10
2023-05-24T07:40:39.358Z,23.67
2023-05-24T07:43:27.261Z,21.50
2023-05-24T07:46:14.679Z,18.40
2023-05-24T07:49:02.094Z,25.27
2023-05-24T07:51:49.521Z,18.20
2023-05-24T07:54:37.275Z,18.87
2023-05-24T07:57:24.805Z,14.07
2023-05-24T08:00:14.317Z,18.03
2023-05-24T08:03:01.919Z,18.67
2023-05-24T08:05:49.356Z,21.33
2023-05-24T08:08:36.767Z,14.73
2023-05-24T08:11:24.176Z,20.70
2023-05-24T08:14:11.688Z,18.27
2023-05-24T08:17:00.909Z,28.60
2023-05-24T08:19:48.324Z,15.63
2023-05-24T08:22:37.281Z,18.60
2023-05-24T08:25:24.762Z,15.77
2023-05-24T08:28:12.207Z,15.47
2023-05-24T08:30:59.942Z,18.00
2023-05-24T08:33:50.283Z,20.03
2023-05-24T08:36:39.030Z,18.57
2023-05-24T08:39:26.684Z,15.80
2023-05-24T08:42:14.381Z,17.83
2023-05-24T08:45:05.540Z,11.80
2023-05-24T08:47:53.116Z,17.57
2023-05-24T08:50:40.776Z,12.23
2023-05-24T08:53:28.273Z,16.60
2023-05-24T08:56:19.342Z,14.63
2023-05-24T08:59:07.657Z,13.40
2023-05-24T09:01:55.470Z,13.93
2023-05-24T09:04:44.299Z,14.23
2023-05-24T09:07:33.237Z,12.90
2023-05-24T09:10:21.794Z,13.20
2023-05-24T09:13:09.504Z,15.77
2023-05-24T09:15:57.327Z,18.80
2023-05-24T09:18:44.841Z,15.80
2023-05-24T09:21:32.743Z,10.40
2023-05-24T09:24:20.489Z,11.23
2023-05-24T09:27:08.104Z,10.57
2023-05-24T09:29:56.357Z,15.83
2023-05-24T09:32:54.869Z,10.53
2023-05-24T09:35:43.797Z,12.40
2023-05-24T09:38:31.316Z,13.80
2023-05-24T09:41:18.766Z,11.03
2023-05-24T09:44:07.516Z,7.73
2023-05-24T09:46:56.095Z,9.30
2023-05-24T09:49:43.834Z,14.63
2023-05-24T09:52:33.195Z,12.87
2023-05-24T09:55:21.579Z,10.57
2023-05-24T09:58:09.567Z,13.70
2023-05-24T10:01:04.005Z,12.17
2023-05-24T10:03:55.688Z,12.53
2023-05-24T10:06:43.553Z,9.77
2023-05-24T10:09:34.044Z,9.87
2023-05-24T10:12:23.257Z,9.50
2023-05-24T10:15:12.171Z,10.50
2023-05-24T10:18:02.204Z,12.60
2023-05-24T10:20:52.181Z,12.90
2023-05-24T10:23:40.211Z,10.43
2023-05-24T10:26:28.324Z,12.37
2023-05-24T10:29:20.768Z,11.20
2023-05-24T10:32:08.828Z,12.93
2023-05-24T10:34:56.313Z,12.53
2023-05-24T10:37:44.001Z,13.03
2023-05-24T10:40:32.606Z,10.47
2023-05-24T10:43:20.088Z,8.27
2023-05-24T10:46:10.793Z,8.43
2023-05-24T10:49:02.762Z,11.73
2023-05-24T10:51:50.271Z,7.13
2023-05-24T10:54:39.780Z,7.43
2023-05-24T10:57:28.725Z,8.87
2023-05-24T11:03:24.403Z,11.38
2023-05-24T11:06:12.166Z,11.55
2023-05-24T11:09:01.034Z,11.52
2023-05-24T11:11:49.793Z,8.95
2023-05-24T11:14:39.559Z,10.27
2023-05-24T11:17:27.005Z,11.38
2023-05-24T11:20:15.540Z,5.88
2023-05-24T11:23:04.183Z,10.37
2023-05-24T11:25:52.175Z,10.68
2023-05-24T11:28:40.099Z,9.60
2023-05-24T11:31:28.220Z,8.75
2023-05-24T11:34:17.239Z,8.45
2023-05-24T11:37:05.990Z,11.73
2023-05-24T11:39:53.782Z,8.88
2023-05-24T11:42:42.249Z,15.60
2023-05-24T11:45:29.876Z,10.75
2023-05-24T11:48:17.656Z,6.60
2023-05-24T11:51:05.904Z,9.82
2023-05-24T11:53:54.849Z,6.88
2023-05-24T11:56:42.647Z,7.03
2023-05-24T11:59:31.038Z,14.90
2023-05-24T12:02:19.513Z,7.85
2023-05-24T12:05:11.512Z,10.32
2023-05-24T12:08:12.402Z,7.55
2023-05-24T12:11:00.155Z,7.28
2023-05-24T12:13:47.549Z,8.13
2023-05-24T12:16:36.726Z,11.77
2023-05-24T12:19:33.276Z,13.65
2023-05-24T12:22:27.392Z,11.40
2023-05-24T12:25:16.530Z,9.00
2023-05-24T12:28:05.717Z,13.43
2023-05-24T12:30:53.417Z,8.35
2023-05-24T12:33:40.863Z,9.70
2023-05-24T12:36:31.392Z,14.40
2023-05-24T12:39:22.154Z,8.52
2023-05-24T12:42:11.920Z,10.80
2023-05-24T12:44:59.349Z,13.23
2023-05-24T12:47:48.072Z,11.60
2023-05-24T12:50:35.556Z,11.43
2023-05-24T12:53:24.524Z,10.70
2023-05-24T12:56:12.157Z,9.93
2023-05-24T12:59:00.061Z,13.95
2023-05-24T13:01:51.617Z,6.25
2023-05-24T13:04:39.074Z,9.68
2023-05-24T13:07:26.649Z,9.48
2023-05-24T13:10:14.202Z,9.02
2023-05-24T13:13:01.618Z,6.47
2023-05-24T13:15:49.032Z,8.70
2023-05-24T13:18:37.321Z,7.55
2023-05-24T13:21:24.742Z,7.93
2023-05-24T13:24:13.238Z,7.82
2023-05-24T13:27:01.669Z,7.10
2023-05-24T13:30:00.304Z,9.90
2023-05-24T13:32:48.845Z,8.15
2023-05-24T13:35:36.260Z,10.70
2023-05-24T13:38:23.681Z,9.35
2023-05-24T13:41:11.087Z,10.40
2023-05-24T13:43:58.501Z,8.57
2023-05-24T13:46:47.160Z,9.00
2023-05-24T13:49:34.724Z,10.48
2023-05-24T13:52:22.162Z,6.90
2023-05-24T13:55:10.729Z,10.80
2023-05-24T13:57:58.423Z,8.27
2023-05-24T14:00:46.075Z,8.82
2023-05-24T14:03:33.597Z,13.65
2023-05-24T14:06:21.833Z,14.48
2023-05-24T14:09:09.504Z,10.10
2023-05-24T14:11:57.754Z,11.60
2023-05-24T14:17:36.557Z,11.18
2023-05-24T14:20:24.228Z,10.35
2023-05-24T14:23:11.667Z,10.95
2023-05-24T14:25:59.509Z,8.02
2023-05-24T14:28:47.357Z,9.48
2023-05-24T14:31:41.828Z,6.45
2023-05-24T14:34:29.313Z,10.18
2023-05-24T14:37:18.328Z,11.50
2023-05-24T14:40:06.868Z,11.60
2023-05-24T14:42:55.361Z,10.90
2023-05-24T14:45:43.310Z,10.93
2023-05-24T14:48:31.006Z,10.35
2023-05-24T14:51:18.506Z,12.98
2023-05-24T14:54:06.008Z,8.48
2023-05-24T14:56:53.411Z,9.48
2023-05-24T14:59:40.850Z,10.98
2023-05-24T15:02:28.412Z,11.00
2023-05-24T15:05:15.934Z,12.82
2023-05-24T15:08:03.431Z,7.28
2023-05-24T15:10:51.028Z,10.07
2023-05-24T15:13:38.471Z,8.82
2023-05-24T15:16:27.123Z,10.43
2023-05-24T15:19:14.739Z,10.40
2023-05-24T15:22:02.126Z,10.50
2023-05-24T15:24:49.489Z,13.88
2023-05-24T15:27:36.885Z,10.15
2023-05-24T15:30:24.246Z,10.63
2023-05-24T15:33:11.642Z,10.68
2023-05-24T15:35:59.447Z,10.82
2023-05-24T15:38:46.860Z,10.13
2023-05-24T15:41:34.309Z,11.23
2023-05-24T15:44:22.155Z,12.40
2023-05-24T15:47:09.569Z,9.43
2023-05-24T15:49:57.111Z,11.45
2023-05-24T15:52:44.620Z,12.60
2023-05-24T15:55:33.602Z,10.27
2023-05-24T15:58:21.267Z,7.10
2023-05-24T16:01:08.661Z,8.93
2023-05-24T16:03:56.145Z,6.00
2023-05-24T16:06:43.593Z,13.90
2023-05-24T16:09:31.314Z,10.52
2023-05-24T16:12:18.920Z,7.95
2023-05-24T16:15:07.022Z,8.43
2023-05-24T16:17:54.459Z,8.25
2023-05-24T16:20:41.981Z,8.57
2023-05-24T16:23:29.585Z,10.82
2023-05-24T16:26:16.998Z,12.10
2023-05-24T16:29:06.425Z,10.35
2023-05-24T16:31:53.870Z,8.55
2023-05-24T16:34:55.434Z,7.88
2023-05-24T16:37:43.973Z,7.57
2023-05-24T16:40:31.414Z,7.60
2023-05-24T16:43:18.832Z,9.77
2023-05-24T16:46:06.446Z,9.40
2023-05-24T16:48:53.855Z,11.05
2023-05-24T16:51:41.312Z,10.68
2023-05-24T16:54:28.746Z,9.85
2023-05-24T16:57:16.186Z,11.60
2023-05-24T17:00:04.685Z,7.80
2023-05-24T17:02:52.247Z,8.13
2023-05-24T17:05:39.728Z,10.15
2023-05-24T17:08:27.804Z,11.65
2023-05-24T17:11:16.942Z,8.25
2023-05-24T17:14:04.368Z,10.07
2023-05-24T17:16:51.751Z,9.52
2023-05-24T17:19:39.252Z,7.82
2023-05-24T17:22:26.647Z,10.43
2023-05-24T17:25:14.034Z,6.82
2023-05-24T17:28:01.718Z,8.82
2023-05-24T17:30:49.117Z,11.40
2023-05-24T17:33:36.505Z,8.15
2023-05-24T17:36:23.886Z,12.85
2023-05-24T17:39:11.384Z,8.82
2023-05-24T17:41:58.760Z,6.03
2023-05-24T17:44:46.247Z,9.88
2023-05-24T17:47:33.682Z,12.15
2023-05-24T17:50:21.111Z,9.77
2023-05-24T17:53:18.972Z,9.82
2023-05-24T17:56:16.078Z,8.57
2023-05-24T17:59:03.507Z,8.40
2023-05-24T18:01:51.123Z,5.20
2023-05-24T18:04:38.680Z,7.05
2023-05-24T18:07:26.094Z,8.55
2023-05-24T18:10:13.525Z,8.50
2023-05-24T18:13:00.961Z,12.70
2023-05-24T18:15:49.048Z,10.15
2023-05-24T18:18:37.669Z,15.20
2023-05-24T18:21:25.128Z,10.80
2023-05-24T18:24:12.587Z,14.82
2023-05-24T18:27:00.052Z,15.43
2023-05-24T18:29:47.451Z,16.17
2023-05-24T18:32:36.661Z,12.98
2023-05-24T18:35:24.367Z,9.45
2023-05-24T18:38:11.764Z,17.23
2023-05-24T18:40:59.289Z,11.30
2023-05-24T18:43:46.704Z,11.77
2023-05-24T18:46:34.178Z,19.38
2023-05-24T18:49:21.661Z,16.10
2023-05-24T18:52:09.321Z,13.13
2023-05-24T18:54:58.560Z,17.90
2023-05-24T18:57:45.952Z,16.07
2023-05-24T19:00:33.422Z,14.23
2023-05-24T19:03:22.318Z,14.37
2023-05-24T19:06:10.352Z,9.10
2023-05-24T19:09:00.031Z,13.67
2023-05-24T19:11:47.675Z,17.03
2023-05-24T19:14:35.141Z,13.93
2023-05-24T19:17:23.986Z,13.87
2023-05-24T19:20:11.889Z,13.63
2023-05-24T19:22:59.609Z,12.93
2023-05-24T19:25:50.084Z,14.77
2023-05-24T19:28:40.239Z,15.10
2023-05-24T19:31:28.007Z,15.13
2023-05-24T19:34:15.677Z,14.83
2023-05-24T19:37:03.176Z,14.60
2023-05-24T19:39:51.382Z,17.40
2023-05-24T19:42:38.784Z,15.63
2023-05-24T19:45:26.310Z,17.13
2023-05-24T19:48:13.730Z,17.80
2023-05-24T19:51:01.156Z,14.37
2023-05-24T19:53:48.607Z,13.00
2023-05-24T19:56:36.500Z,16.87
2023-05-24T19:59:23.880Z,14.70
2023-05-24T20:02:11.270Z,18.27
2023-05-24T20:04:58.710Z,16.47
2023-05-24T20:07:46.313Z,18.80
2023-05-24T20:10:36.218Z,14.40
2023-05-24T20:13:23.683Z,17.43
2023-05-24T20:16:11.223Z,12.43
2023-05-24T20:18:58.758Z,15.13
2023-05-24T20:21:46.192Z,15.57
2023-05-24T20:24:33.775Z,13.83
2023-05-24T20:27:21.294Z,11.27
2023-05-24T20:30:09.271Z,19.57
2023-05-24T20:32:56.687Z,13.90
2023-05-24T20:35:44.300Z,19.10
2023-05-24T20:38:31.979Z,14.03
2023-05-24T20:41:19.369Z,18.07
2023-05-24T20:44:06.814Z,15.10
2023-05-24T20:46:54.190Z,15.03
2023-05-24T20:49:41.595Z,16.37
2023-05-24T20:52:29.003Z,14.57
2023-05-24T20:55:16.556Z,16.00
2023-05-24T20:58:03.945Z,18.07
2023-05-24T21:00:51.678Z,9.60
2023-05-24T21:03:39.232Z,12.87
2023-05-24T21:06:26.738Z,15.47
2023-05-24T21:09:14.155Z,14.33
2023-05-24T21:12:02.934Z,18.23
2023-05-24T21:14:53.670Z,12.93
2023-05-24T21:17:41.093Z,14.07
2023-05-24T21:20:28.531Z,11.93
2023-05-24T21:23:15.933Z,18.83
2023-05-24T21:26:03.332Z,12.37
2023-05-24T21:28:50.849Z,17.17
2023-05-24T21:31:38.314Z,13.10
2023-05-24T21:34:27.236Z,12.30
2023-05-24T21:37:14.652Z,16.53
2023-05-24T21:40:02.324Z,11.90
2023-05-24T21:42:49.678Z,16.10
2023-05-24T21:45:37.056Z,15.93
2023-05-24T21:48:24.476Z,16.13
2023-05-24T21:51:11.899Z,14.43
2023-05-24T21:53:59.318Z,16.67
2023-05-24T21:56:47.137Z,15.63
2023-05-24T21:59:34.537Z,15.27
2023-05-24T22:02:22.022Z,15.70
2023-05-24T22:05:09.563Z,14.73
2023-05-24T22:07:57.065Z,12.93
2023-05-24T22:10:44.485Z,17.53
2023-05-24T22:13:31.895Z,16.87
2023-05-24T22:16:19.387Z,13.60
2023-05-24T22:19:14.933Z,14.97
2023-05-24T22:22:04.671Z,14.87
2023-05-24T22:24:52.074Z,14.17
2023-05-24T22:27:39.452Z,13.83
2023-05-24T22:30:27.003Z,14.20
2023-05-24T22:33:14.431Z,13.77
2023-05-24T22:36:02.572Z,18.07
2023-05-24T22:38:50.001Z,12.33
2023-05-24T22:41:37.407Z,17.30
2023-05-24T22:44:24.798Z,16.53
2023-05-24T22:47:13.934Z,15.40
2023-05-24T22:50:02.415Z,17.17
2023-05-24T22:52:50.619Z,9.37
2023-05-24T22:55:37.989Z,13.57
2023-05-24T22:58:25.729Z,15.10
2023-05-24T23:01:13.164Z,13.87
2023-05-24T23:04:15.827Z,13.10
2023-05-24T23:07:07.658Z,14.13
2023-05-24T23:09:55.158Z,12.63
2023-05-24T23:12:42.630Z,13.90
2023-05-24T23:15:31.801Z,14.87
2023-05-24T23:18:22.059Z,15.80
2023-05-24T23:21:14.331Z,10.83
2023-05-24T23:24:02.078Z,13.20
2023-05-24T23:26:49.502Z,15.23
2023-05-24T23:29:38.976Z,11.53
2023-05-24T23:32:26.486Z,9.93
2023-05-24T23:35:13.917Z,12.30
2023-05-24T23:38:01.817Z,16.00
2023-05-24T23:40:49.290Z,12.63
2023-05-24T23:43:36.744Z,12.73
2023-05-24T23:46:24.184Z,16.90
2023-05-24T23:49:12.660Z,12.30
2023-05-24T23:52:00.164Z,12.07
2023-05-24T23:54:48.012Z,9.73
2023-05-24T23:57:35.431Z,9.27
